Memorial Field Hot Springs US
ICAO: KHOT
IATA: HOT
Category: Medium
Scheduled Services: Yes

Elevation: 540 ft
TransAlt. 18000 ft.

Airport Communications:
MEMPHIS CNTR:127.825
ASOS:119.925
JONESBORO RDO:110
CTAF/UNICOM:123

KHOT Zoom In..

If you have problems with the map follow the link
https://www.worldairports.se/pages/airport.php?
ICAO=KHOT

Runways:

(A) RW 05 length 6595 ft width 150 ft
ILS 111.50 / hdg 50

(B) RW 13 length 4098 ft width 100 ft
---- / hdg 130

(C) RW 23 length 6595 ft width 150 ft
---- / hdg 230

(D) RW 31 length 4098 ft width 100 ft
---- / hdg 310

Location; KHOT
Day. 22 / Time. 16.22 Zulu
* Altimeter: 30.12
* Temperature: 08° c. 46.4°f.
* Wind from: 100° Speed 06 kn.
Dewpoint: 08° c.
Visibility: 5 Statute Miles.
Clouds: Overcast 400 ft.
Conditions: Mist.

KHOT 221622Z AUTO 10006KT 5SM BR OVC004 08/08 A3012 RMK AO2 T00780078


Wind From 100°
Speed 06 kn.

 
 
jpsmedia.com for Web Design worldairports.se 2019   terms of use